Time;durP1;ratioP1;P1;durP2;ratioP2;P2;SDS_P1;SDS_P2;PMS_P1;PMS_P2;Temp;Humidity;BMP_temperature;BMP_pressure;BME280_temperature;BME280_humidity;BME280_pressure;Samples;Min_cycle;Max_cycle;Signal;HPM_P1;HPM_P2
2023/10/07 00:00:40;;;;;;;13.93;5.60;;;;;;;;;;5161639;27;20014;-72
2023/10/07 00:03:25;;;;;;;10.40;5.50;;;;;;;;;;5161919;27;20022;-72
2023/10/07 00:06:11;;;;;;;13.43;5.80;;;;;;;;;;5177050;27;20428;-73
2023/10/07 00:08:59;;;;;;;13.52;6.05;;;;;;;;;;5161586;27;20030;-72
2023/10/07 00:11:47;;;;;;;14.40;5.60;;;;;;;;;;5177025;27;20026;-72
2023/10/07 00:14:33;;;;;;;11.48;5.40;;;;;;;;;;5176339;27;20068;-72
2023/10/07 00:17:18;;;;;;;10.27;5.70;;;;;;;;;;5160618;27;20022;-72
2023/10/07 00:20:05;;;;;;;9.88;5.40;;;;;;;;;;5176157;27;20455;-72
2023/10/07 00:22:54;;;;;;;11.55;6.07;;;;;;;;;;5176980;27;20027;-72
2023/10/07 00:25:40;;;;;;;9.35;5.28;;;;;;;;;;5160890;27;20066;-72
2023/10/07 00:28:32;;;;;;;12.68;6.18;;;;;;;;;;5161245;27;20018;-72
2023/10/07 00:31:22;;;;;;;12.93;5.75;;;;;;;;;;5161945;27;20347;-73
2023/10/07 00:34:15;;;;;;;13.48;5.53;;;;;;;;;;5160916;27;20459;-71
2023/10/07 00:37:00;;;;;;;13.00;6.63;;;;;;;;;;5175120;27;20022;-72
2023/10/07 00:39:46;;;;;;;10.27;6.03;;;;;;;;;;5176456;27;20110;-72
2023/10/07 00:42:33;;;;;;;13.07;5.80;;;;;;;;;;5176260;27;20018;-73
2023/10/07 00:45:20;;;;;;;9.45;5.57;;;;;;;;;;5176436;27;20042;-73
2023/10/07 00:48:10;;;;;;;11.18;5.90;;;;;;;;;;5176201;27;20018;-72
2023/10/07 00:50:56;;;;;;;13.48;6.18;;;;;;;;;;5184935;27;20038;-71
2023/10/07 00:53:45;;;;;;;12.90;6.15;;;;;;;;;;5186528;27;20078;-71
2023/10/07 00:56:34;;;;;;;11.25;5.72;;;;;;;;;;5164189;27;20046;-73
2023/10/07 00:59:24;;;;;;;11.60;5.75;;;;;;;;;;5178327;27;20018;-72
2023/10/07 01:02:16;;;;;;;13.73;6.03;;;;;;;;;;5178576;27;20045;-72
2023/10/07 01:05:13;;;;;;;10.27;5.72;;;;;;;;;;5178328;27;20101;-71
2023/10/07 01:07:58;;;;;;;12.65;5.55;;;;;;;;;;5176746;27;20476;-72
2023/10/07 01:10:54;;;;;;;17.83;6.53;;;;;;;;;;5176108;27;20022;-72
2023/10/07 01:13:48;;;;;;;11.27;5.75;;;;;;;;;;5176261;27;20018;-72
2023/10/07 01:19:28;;;;;;;9.65;5.80;;;;;;;;;;5176364;27;20033;-72
2023/10/07 01:22:18;;;;;;;10.85;5.93;;;;;;;;;;5175992;27;20071;-71
2023/10/07 01:25:09;;;;;;;10.88;5.60;;;;;;;;;;5160515;27;20075;-71
2023/10/07 01:27:55;;;;;;;9.55;5.70;;;;;;;;;;5175262;27;20356;-71
2023/10/07 01:30:47;;;;;;;10.23;5.70;;;;;;;;;;5161211;27;20057;-72
2023/10/07 01:33:39;;;;;;;9.65;5.72;;;;;;;;;;5175323;27;20049;-71
2023/10/07 01:36:24;;;;;;;10.90;5.57;;;;;;;;;;5176008;27;20014;-72
2023/10/07 01:39:10;;;;;;;12.10;5.63;;;;;;;;;;5175314;27;20019;-71
2023/10/07 01:42:01;;;;;;;11.10;5.97;;;;;;;;;;5174848;27;20018;-72
2023/10/07 01:44:48;;;;;;;14.30;5.97;;;;;;;;;;5175202;27;20030;-72
2023/10/07 01:47:35;;;;;;;11.68;5.40;;;;;;;;;;5161263;27;20018;-71
2023/10/07 01:50:24;;;;;;;8.57;5.22;;;;;;;;;;5175390;27;20046;-71
2023/10/07 01:53:11;;;;;;;11.70;6.00;;;;;;;;;;5161404;27;20356;-71
2023/10/07 01:55:57;;;;;;;12.82;5.72;;;;;;;;;;5174644;27;20019;-71
2023/10/07 01:58:43;;;;;;;11.60;5.20;;;;;;;;;;5179420;27;20029;-72
2023/10/07 02:01:28;;;;;;;9.85;5.70;;;;;;;;;;5178900;27;20022;-71
2023/10/07 02:04:18;;;;;;;10.25;5.47;;;;;;;;;;5178597;27;20043;-72
2023/10/07 02:07:04;;;;;;;12.90;6.10;;;;;;;;;;5163479;27;20046;-72
2023/10/07 02:09:54;;;;;;;11.82;5.75;;;;;;;;;;5179170;27;20022;-73
2023/10/07 02:12:45;;;;;;;12.10;5.43;;;;;;;;;;5164492;27;20029;-72
2023/10/07 02:15:36;;;;;;;11.38;5.68;;;;;;;;;;5179926;27;20019;-73
2023/10/07 02:18:22;;;;;;;10.70;5.25;;;;;;;;;;5177930;27;20344;-72
2023/10/07 02:21:08;;;;;;;7.90;5.15;;;;;;;;;;5177619;27;20014;-72
2023/10/07 02:23:54;;;;;;;10.65;5.82;;;;;;;;;;5179502;27;20101;-72
2023/10/07 02:26:43;;;;;;;14.70;5.47;;;;;;;;;;5179348;27;20439;-72
2023/10/07 02:29:28;;;;;;;10.82;4.97;;;;;;;;;;5163278;27;20095;-72
2023/10/07 02:32:14;;;;;;;8.63;5.22;;;;;;;;;;5179033;27;20018;-73
2023/10/07 02:35:01;;;;;;;11.13;5.25;;;;;;;;;;5178527;27;20023;-72
2023/10/07 02:37:49;;;;;;;8.35;5.28;;;;;;;;;;5179641;27;20026;-72
2023/10/07 02:40:36;;;;;;;10.00;5.20;;;;;;;;;;5178214;27;20007;-72
2023/10/07 02:43:21;;;;;;;9.93;4.90;;;;;;;;;;5164950;27;20018;-72
2023/10/07 02:46:07;;;;;;;9.20;5.18;;;;;;;;;;5178047;27;20033;-71
2023/10/07 02:49:01;;;;;;;7.82;4.55;;;;;;;;;;5163931;27;20106;-71
2023/10/07 02:51:48;;;;;;;12.90;5.45;;;;;;;;;;5179517;27;20444;-72
2023/10/07 02:54:34;;;;;;;10.35;4.60;;;;;;;;;;5178422;27;20026;-72
2023/10/07 02:57:34;;;;;;;11.32;5.20;;;;;;;;;;5163688;27;20099;-71
2023/10/07 03:00:38;;;;;;;9.18;5.28;;;;;;;;;;5177648;27;20022;-72
2023/10/07 03:06:11;;;;;;;10.35;4.78;;;;;;;;;;5178648;27;20022;-72
2023/10/07 03:09:01;;;;;;;7.85;4.63;;;;;;;;;;5177617;27;20055;-72
2023/10/07 03:11:50;;;;;;;10.35;4.97;;;;;;;;;;5177532;27;20033;-72
2023/10/07 03:14:36;;;;;;;9.18;4.70;;;;;;;;;;5176963;27;20018;-72
2023/10/07 03:17:22;;;;;;;10.35;4.68;;;;;;;;;;5177976;27;20355;-72
2023/10/07 03:23:14;;;;;;;8.30;4.57;;;;;;;;;;5178685;27;20336;-71
2023/10/07 03:28:53;;;;;;;9.90;4.57;;;;;;;;;;5178156;27;20014;-72
2023/10/07 03:34:24;;;;;;;7.63;4.30;;;;;;;;;;5176976;27;20022;-72
2023/10/07 03:40:25;;;;;;;8.70;4.30;;;;;;;;;;5177183;27;20093;-71
2023/10/07 03:43:10;;;;;;;10.00;4.95;;;;;;;;;;5177518;27;20018;-71
2023/10/07 03:45:56;;;;;;;7.22;4.07;;;;;;;;;;5177034;27;20058;-71
2023/10/07 03:48:49;;;;;;;5.90;4.18;;;;;;;;;;5176572;27;20042;-72
2023/10/07 03:51:35;;;;;;;11.25;4.30;;;;;;;;;;5161054;27;20150;-72
2023/10/07 03:54:30;;;;;;;8.05;4.88;;;;;;;;;;5176401;27;20018;-71
2023/10/07 03:57:15;;;;;;;11.05;5.00;;;;;;;;;;5176389;27;20416;-72
2023/10/07 04:00:01;;;;;;;9.32;6.60;;;;;;;;;;5161845;27;20061;-71
2023/10/07 04:02:47;;;;;;;10.15;5.13;;;;;;;;;;5177048;27;20436;-72
2023/10/07 04:05:35;;;;;;;8.20;5.10;;;;;;;;;;5161112;27;20320;-72
2023/10/07 04:08:21;;;;;;;10.23;4.50;;;;;;;;;;5176324;27;20340;-71
2023/10/07 04:11:16;;;;;;;7.43;4.18;;;;;;;;;;5161028;27;20500;-71
2023/10/07 04:14:27;;;;;;;9.85;4.32;;;;;;;;;;5176928;27;20023;-71
2023/10/07 04:17:11;;;;;;;8.57;4.35;;;;;;;;;;5176537;27;20188;-72
2023/10/07 04:20:13;;;;;;;8.93;4.45;;;;;;;;;;5176895;27;20018;-72
2023/10/07 04:23:00;;;;;;;6.28;4.20;;;;;;;;;;5176957;27;20018;-72
2023/10/07 04:25:47;;;;;;;7.57;4.53;;;;;;;;;;5176559;27;20051;-71
2023/10/07 04:28:33;;;;;;;9.52;4.85;;;;;;;;;;5177269;27;20033;-72
2023/10/07 04:31:29;;;;;;;12.80;4.63;;;;;;;;;;5177238;27;20034;-71
2023/10/07 04:34:15;;;;;;;7.50;4.63;;;;;;;;;;5177151;27;20029;-71
2023/10/07 04:42:38;;;;;;;9.18;4.65;;;;;;;;;;5176756;27;20485;-71
2023/10/07 04:45:35;;;;;;;9.15;4.32;;;;;;;;;;5175431;27;20078;-71
2023/10/07 04:48:24;;;;;;;8.85;5.10;;;;;;;;;;5162757;27;20028;-72
2023/10/07 04:51:13;;;;;;;10.95;4.38;;;;;;;;;;5176159;27;20018;-72
2023/10/07 04:54:02;;;;;;;8.48;4.60;;;;;;;;;;5176676;27;20404;-72
2023/10/07 04:56:53;;;;;;;12.15;5.25;;;;;;;;;;5148098;27;20121;-71
2023/10/07 04:59:45;;;;;;;7.88;4.80;;;;;;;;;;5176095;27;20014;-72
2023/10/07 05:02:31;;;;;;;13.88;5.75;;;;;;;;;;5160665;27;20028;-72
2023/10/07 05:05:16;;;;;;;10.32;5.00;;;;;;;;;;5176939;27;20022;-74
2023/10/07 05:08:11;;;;;;;12.32;5.32;;;;;;;;;;5175895;27;20106;-72
2023/10/07 05:11:05;;;;;;;10.77;5.32;;;;;;;;;;5160327;27;20101;-72
2023/10/07 05:13:50;;;;;;;10.63;5.20;;;;;;;;;;5176214;27;20025;-71
2023/10/07 05:16:39;;;;;;;13.52;5.90;;;;;;;;;;5175638;27;20029;-71
2023/10/07 05:19:27;;;;;;;17.40;5.82;;;;;;;;;;5160178;27;20025;-72
2023/10/07 05:22:16;;;;;;;9.50;5.72;;;;;;;;;;5162457;27;20023;-72
2023/10/07 05:25:03;;;;;;;12.73;5.05;;;;;;;;;;5160831;27;20014;-71
2023/10/07 05:27:50;;;;;;;10.45;5.82;;;;;;;;;;5174761;27;20029;-72
2023/10/07 05:30:43;;;;;;;18.25;6.60;;;;;;;;;;5160262;27;20018;-71
2023/10/07 05:33:28;;;;;;;30.23;8.15;;;;;;;;;;5178511;27;20054;-72
2023/10/07 05:36:14;;;;;;;15.15;6.82;;;;;;;;;;5180576;27;20431;-72
2023/10/07 05:39:00;;;;;;;30.55;7.50;;;;;;;;;;5180300;27;20029;-72
2023/10/07 05:41:47;;;;;;;13.70;5.57;;;;;;;;;;5164535;27;20095;-72
2023/10/07 05:44:37;;;;;;;9.30;5.30;;;;;;;;;;5165790;27;20025;-72
2023/10/07 05:47:23;;;;;;;13.73;5.22;;;;;;;;;;5164864;27;20019;-72
2023/10/07 05:50:09;;;;;;;11.02;4.95;;;;;;;;;;5178756;27;20153;-72
2023/10/07 05:52:55;;;;;;;11.13;4.70;;;;;;;;;;5162985;27;20018;-73
2023/10/07 05:55:41;;;;;;;10.90;5.07;;;;;;;;;;5179156;27;20086;-72
2023/10/07 05:58:27;;;;;;;11.00;5.45;;;;;;;;;;5179019;27;20034;-71
2023/10/07 06:01:14;;;;;;;15.15;5.28;;;;;;;;;;5164460;27;20011;-71
2023/10/07 06:04:00;;;;;;;8.50;4.50;;;;;;;;;;5164410;27;20019;-72
2023/10/07 06:06:46;;;;;;;12.05;5.35;;;;;;;;;;5177889;27;20022;-71
2023/10/07 06:09:31;;;;;;;11.40;4.90;;;;;;;;;;5178214;27;20022;-73
2023/10/07 06:12:18;;;;;;;16.02;6.30;;;;;;;;;;5180075;27;20474;-73
2023/10/07 06:15:10;;;;;;;11.05;4.90;;;;;;;;;;5179558;27;20022;-72
2023/10/07 06:17:56;;;;;;;12.50;5.10;;;;;;;;;;5178347;27;20475;-72
2023/10/07 06:20:46;;;;;;;17.40;5.35;;;;;;;;;;5163869;27;20014;-70
2023/10/07 06:23:36;;;;;;;7.13;4.53;;;;;;;;;;5178559;27;20044;-72
2023/10/07 06:26:21;;;;;;;8.75;4.80;;;;;;;;;;5178961;27;20018;-73
2023/10/07 06:29:18;;;;;;;14.18;5.43;;;;;;;;;;5178667;27;20057;-72
2023/10/07 06:32:22;;;;;;;10.98;4.93;;;;;;;;;;5163245;27;20060;-72
2023/10/07 06:35:13;;;;;;;12.68;4.78;;;;;;;;;;5177143;27;20041;-72
2023/10/07 06:37:58;;;;;;;8.23;4.50;;;;;;;;;;5162984;27;20022;-71
2023/10/07 06:40:44;;;;;;;9.23;4.70;;;;;;;;;;5177886;27;20018;-72
2023/10/07 06:43:30;;;;;;;15.35;5.43;;;;;;;;;;5178494;27;20058;-72
2023/10/07 06:46:21;;;;;;;9.25;4.32;;;;;;;;;;5163094;27;20082;-72
2023/10/07 06:49:19;;;;;;;10.02;4.90;;;;;;;;;;5177443;27;20064;-72
2023/10/07 06:52:05;;;;;;;11.48;5.05;;;;;;;;;;5163514;27;20087;-72
2023/10/07 06:54:54;;;;;;;8.77;4.97;;;;;;;;;;5177574;27;20063;-71
2023/10/07 06:57:42;;;;;;;9.13;4.45;;;;;;;;;;5176910;27;20022;-72
2023/10/07 07:00:44;;;;;;;8.27;4.65;;;;;;;;;;5162002;27;20533;-71
2023/10/07 07:03:32;;;;;;;11.07;4.70;;;;;;;;;;5181384;27;20018;-71
2023/10/07 07:06:17;;;;;;;11.50;4.35;;;;;;;;;;5164181;27;20047;-72
2023/10/07 07:09:41;;;;;;;9.15;4.18;;;;;;;;;;5164501;27;20412;-71
2023/10/07 07:12:09;;;;;;;10.38;4.68;;;;;;;;;;5176818;27;20093;-71
2023/10/07 07:15:26;;;;;;;12.05;5.18;;;;;;;;;;5163786;27;20058;-72
2023/10/07 07:21:13;;;;;;;9.82;4.60;;;;;;;;;;5178090;27;20051;-72
2023/10/07 07:24:00;;;;;;;9.27;4.28;;;;;;;;;;5177426;27;20125;-72
2023/10/07 07:26:51;;;;;;;7.47;4.70;;;;;;;;;;5162544;27;20057;-73
2023/10/07 07:29:37;;;;;;;11.95;4.45;;;;;;;;;;5177959;27;20101;-72
2023/10/07 07:32:28;;;;;;;12.10;4.95;;;;;;;;;;5177229;27;20026;-73
2023/10/07 07:35:13;;;;;;;29.67;5.75;;;;;;;;;;5177764;27;20097;-71
2023/10/07 07:38:02;;;;;;;15.70;4.72;;;;;;;;;;5162583;27;20022;-72
2023/10/07 07:40:52;;;;;;;17.40;5.00;;;;;;;;;;5176528;27;20014;-72
2023/10/07 07:43:40;;;;;;;12.40;4.70;;;;;;;;;;5177165;27;20022;-73
2023/10/07 07:46:28;;;;;;;18.60;5.15;;;;;;;;;;5176443;27;20018;-71
2023/10/07 07:49:17;;;;;;;10.90;5.45;;;;;;;;;;5177083;27;20030;-72
2023/10/07 07:52:08;;;;;;;10.95;5.05;;;;;;;;;;5178169;27;20431;-73
2023/10/07 07:54:54;;;;;;;12.55;5.20;;;;;;;;;;5175365;27;20026;-72
2023/10/07 07:57:44;;;;;;;13.27;4.85;;;;;;;;;;5162712;27;20022;-71
2023/10/07 08:00:31;;;;;;;14.02;5.68;;;;;;;;;;5176695;27;20029;-71
2023/10/07 08:03:17;;;;;;;13.52;5.40;;;;;;;;;;5177493;27;20086;-72
2023/10/07 08:06:04;;;;;;;11.68;5.20;;;;;;;;;;5177112;27;20014;-73
2023/10/07 08:08:53;;;;;;;11.13;5.00;;;;;;;;;;5177088;27;20083;-72
2023/10/07 08:11:40;;;;;;;12.75;5.05;;;;;;;;;;5177276;27;20105;-73
2023/10/07 08:14:27;;;;;;;13.60;5.03;;;;;;;;;;5160973;27;20033;-73
2023/10/07 08:17:19;;;;;;;15.60;4.95;;;;;;;;;;5176716;27;20054;-74
2023/10/07 08:20:11;;;;;;;13.60;5.30;;;;;;;;;;5161397;27;20014;-74
2023/10/07 08:22:56;;;;;;;8.90;4.38;;;;;;;;;;5175950;27;20393;-72
2023/10/07 08:25:49;;;;;;;16.10;5.13;;;;;;;;;;5175822;27;20026;-72
2023/10/07 08:28:42;;;;;;;62.30;7.07;;;;;;;;;;5159923;27;20367;-72
2023/10/07 08:31:44;;;;;;;11.77;4.93;;;;;;;;;;5175945;27;20190;-72
2023/10/07 08:34:34;;;;;;;10.50;4.88;;;;;;;;;;5175353;27;20032;-72
2023/10/07 08:37:19;;;;;;;26.98;5.38;;;;;;;;;;5175214;27;20022;-72
2023/10/07 08:40:14;;;;;;;16.25;4.90;;;;;;;;;;5175176;27;20331;-71
2023/10/07 08:43:00;;;;;;;31.83;5.72;;;;;;;;;;5161785;27;20458;-73
2023/10/07 08:45:47;;;;;;;18.50;5.63;;;;;;;;;;5161039;27;20022;-72
2023/10/07 08:48:38;;;;;;;13.35;5.03;;;;;;;;;;5175753;27;20038;-72
2023/10/07 08:51:24;;;;;;;10.80;5.50;;;;;;;;;;5161068;27;20018;-72
2023/10/07 08:54:17;;;;;;;34.47;6.55;;;;;;;;;;5161982;27;20133;-72
2023/10/07 08:57:10;;;;;;;35.00;6.80;;;;;;;;;;5175139;27;20448;-72
2023/10/07 08:59:59;;;;;;;13.80;5.65;;;;;;;;;;5161192;27;20023;-73
2023/10/07 09:02:45;;;;;;;47.33;7.35;;;;;;;;;;5175400;27;20024;-72
2023/10/07 09:05:31;;;;;;;20.25;5.47;;;;;;;;;;5175596;27;20021;-71
2023/10/07 09:08:16;;;;;;;16.23;5.40;;;;;;;;;;5180667;27;20018;-71
2023/10/07 09:11:08;;;;;;;21.38;5.50;;;;;;;;;;5179944;27;20022;-73
2023/10/07 09:13:55;;;;;;;12.30;4.93;;;;;;;;;;5179870;27;20014;-72
2023/10/07 09:16:42;;;;;;;14.00;5.32;;;;;;;;;;5180623;27;20166;-72
2023/10/07 09:19:28;;;;;;;15.23;4.97;;;;;;;;;;5183718;27;20443;-72
2023/10/07 09:22:15;;;;;;;12.30;4.90;;;;;;;;;;5181199;27;20113;-72
2023/10/07 09:25:28;;;;;;;17.08;4.97;;;;;;;;;;5179154;27;20105;-72
2023/10/07 09:28:18;;;;;;;18.23;5.50;;;;;;;;;;5178873;27;20029;-72
2023/10/07 09:31:09;;;;;;;20.85;5.32;;;;;;;;;;5178139;27;20025;-73
2023/10/07 09:34:02;;;;;;;11.25;4.68;;;;;;;;;;5179120;27;20010;-72
2023/10/07 09:36:48;;;;;;;12.93;5.15;;;;;;;;;;5180113;27;20026;-71
2023/10/07 09:39:34;;;;;;;17.10;4.80;;;;;;;;;;5168174;27;20050;-73
2023/10/07 09:42:26;;;;;;;13.10;4.63;;;;;;;;;;5180676;27;20037;-72
2023/10/07 09:45:17;;;;;;;16.23;4.97;;;;;;;;;;5179809;27;20022;-72
2023/10/07 09:48:05;;;;;;;15.77;4.95;;;;;;;;;;5178286;27;20049;-72
2023/10/07 09:50:55;;;;;;;12.52;4.57;;;;;;;;;;5179153;27;20038;-72
2023/10/07 09:53:44;;;;;;;17.60;5.00;;;;;;;;;;5178712;27;20070;-74
2023/10/07 09:56:58;;;;;;;13.15;4.97;;;;;;;;;;5179012;27;20339;-72
2023/10/07 10:00:26;;;;;;;13.43;4.35;;;;;;;;;;5179601;27;20018;-72
2023/10/07 10:03:12;;;;;;;18.83;4.47;;;;;;;;;;5178948;27;20023;-72
2023/10/07 10:06:07;;;;;;;7.88;4.38;;;;;;;;;;5179126;27;20062;-73
2023/10/07 10:08:59;;;;;;;18.42;4.75;;;;;;;;;;5178315;27;20045;-74
2023/10/07 10:11:55;;;;;;;8.70;4.10;;;;;;;;;;5178353;27;20448;-73
2023/10/07 10:14:56;;;;;;;19.50;4.80;;;;;;;;;;5164192;27;20038;-72
2023/10/07 10:17:48;;;;;;;22.85;5.40;;;;;;;;;;5177950;27;20101;-73
2023/10/07 10:20:43;;;;;;;13.95;5.15;;;;;;;;;;5163645;27;20026;-74
2023/10/07 10:23:32;;;;;;;9.68;4.07;;;;;;;;;;5177427;27;20010;-72
2023/10/07 10:26:22;;;;;;;14.65;4.50;;;;;;;;;;5163344;27;20079;-72
2023/10/07 10:29:16;;;;;;;9.75;3.90;;;;;;;;;;5181780;27;20047;-74
2023/10/07 10:32:07;;;;;;;10.27;4.22;;;;;;;;;;5177994;27;20039;-71
2023/10/07 10:34:53;;;;;;;16.85;4.63;;;;;;;;;;5178624;27;20097;-72
2023/10/07 10:37:38;;;;;;;13.77;3.88;;;;;;;;;;5176920;27;20091;-71
2023/10/07 10:40:31;;;;;;;10.73;3.95;;;;;;;;;;5178167;27;20015;-72
2023/10/07 10:43:24;;;;;;;11.13;4.00;;;;;;;;;;5178055;27;20013;-71
2023/10/07 10:46:09;;;;;;;7.80;4.03;;;;;;;;;;5163625;27;20096;-71
2023/10/07 10:48:55;;;;;;;11.95;4.07;;;;;;;;;;5176885;27;20054;-71
2023/10/07 10:51:48;;;;;;;17.02;3.90;;;;;;;;;;5162581;27;20018;-71
2023/10/07 10:54:35;;;;;;;16.70;4.03;;;;;;;;;;5163154;27;20051;-72
2023/10/07 10:57:24;;;;;;;12.30;3.92;;;;;;;;;;5178555;27;20061;-74
2023/10/07 11:00:22;;;;;;;6.13;4.20;;;;;;;;;;5177368;27;20364;-72
2023/10/07 11:03:13;;;;;;;13.85;3.78;;;;;;;;;;5177490;27;20025;-71
2023/10/07 11:05:58;;;;;;;10.05;3.80;;;;;;;;;;5178514;27;20026;-72
2023/10/07 11:08:44;;;;;;;10.55;4.45;;;;;;;;;;5178189;27;20018;-72
2023/10/07 11:11:30;;;;;;;10.57;4.28;;;;;;;;;;5176974;27;20078;-73
2023/10/07 11:14:20;;;;;;;18.30;4.20;;;;;;;;;;5176581;27;20030;-73
2023/10/07 11:17:09;;;;;;;8.07;3.50;;;;;;;;;;5177571;27;20493;-72
2023/10/07 11:19:54;;;;;;;13.57;3.80;;;;;;;;;;5176690;27;20050;-72
2023/10/07 11:22:42;;;;;;;12.90;3.65;;;;;;;;;;5177567;27;20033;-73
2023/10/07 11:25:27;;;;;;;8.80;3.47;;;;;;;;;;5162707;27;20033;-74
2023/10/07 11:28:15;;;;;;;12.40;3.92;;;;;;;;;;5177472;27;20059;-71
2023/10/07 11:31:00;;;;;;;8.73;3.50;;;;;;;;;;5161983;27;20529;-72
2023/10/07 11:33:52;;;;;;;7.35;3.60;;;;;;;;;;5177514;27;20505;-72
2023/10/07 11:36:43;;;;;;;15.27;3.67;;;;;;;;;;5177655;27;20074;-72
2023/10/07 11:39:29;;;;;;;7.82;3.85;;;;;;;;;;5178245;27;20028;-72
2023/10/07 11:42:17;;;;;;;9.63;3.97;;;;;;;;;;5178659;27;20051;-74
2023/10/07 11:45:04;;;;;;;17.20;3.90;;;;;;;;;;5177613;27;20166;-71
2023/10/07 11:47:50;;;;;;;10.18;4.30;;;;;;;;;;5177184;27;20022;-71
2023/10/07 11:50:36;;;;;;;17.08;3.92;;;;;;;;;;5176104;27;20046;-72
2023/10/07 11:53:22;;;;;;;9.90;4.03;;;;;;;;;;5161327;27;20022;-73
2023/10/07 11:56:11;;;;;;;9.35;3.53;;;;;;;;;;5176196;27;20026;-71
2023/10/07 11:58:57;;;;;;;9.10;4.07;;;;;;;;;;5176381;27;20030;-73
2023/10/07 12:01:42;;;;;;;7.00;4.40;;;;;;;;;;5176633;27;20101;-72
2023/10/07 12:04:28;;;;;;;9.45;4.15;;;;;;;;;;5177260;27;20385;-72
2023/10/07 12:07:14;;;;;;;11.77;4.00;;;;;;;;;;5176175;27;20063;-73
2023/10/07 12:10:00;;;;;;;15.93;4.50;;;;;;;;;;5177723;27;20059;-72
2023/10/07 12:12:49;;;;;;;8.57;4.47;;;;;;;;;;5176192;27;20019;-72
2023/10/07 12:15:35;;;;;;;7.88;4.13;;;;;;;;;;5176427;27;20018;-73
2023/10/07 12:18:20;;;;;;;10.77;4.57;;;;;;;;;;5176162;27;20018;-72
2023/10/07 12:21:12;;;;;;;8.57;3.90;;;;;;;;;;5160410;27;20035;-72
2023/10/07 12:23:57;;;;;;;7.38;3.90;;;;;;;;;;5160626;27;20468;-74
2023/10/07 12:26:46;;;;;;;12.73;4.13;;;;;;;;;;5176727;27;20186;-71
2023/10/07 12:29:33;;;;;;;9.52;3.88;;;;;;;;;;5161231;27;20082;-72
2023/10/07 12:32:18;;;;;;;8.43;4.07;;;;;;;;;;5175413;27;20022;-72
2023/10/07 12:35:04;;;;;;;8.80;4.00;;;;;;;;;;5175612;27;20336;-73
2023/10/07 12:37:53;;;;;;;7.57;3.65;;;;;;;;;;5175137;27;20090;-73
2023/10/07 12:40:39;;;;;;;10.23;4.68;;;;;;;;;;5176813;27;20063;-73
2023/10/07 12:43:25;;;;;;;10.48;4.43;;;;;;;;;;5177127;27;20076;-74
2023/10/07 12:46:10;;;;;;;14.15;4.63;;;;;;;;;;5178449;27;20440;-71
2023/10/07 12:48:56;;;;;;;9.32;4.30;;;;;;;;;;5178378;27;20042;-72
2023/10/07 12:51:43;;;;;;;8.05;4.15;;;;;;;;;;5177069;27;20014;-72
2023/10/07 12:54:29;;;;;;;9.27;4.25;;;;;;;;;;5176763;27;20054;-72
2023/10/07 12:57:15;;;;;;;14.20;4.15;;;;;;;;;;5175721;27;20458;-72
2023/10/07 13:00:01;;;;;;;8.95;4.28;;;;;;;;;;5160458;27;20018;-71
2023/10/07 13:02:47;;;;;;;11.93;4.28;;;;;;;;;;5176422;27;20393;-72
2023/10/07 13:05:37;;;;;;;17.33;4.57;;;;;;;;;;5177187;27;20037;-72
2023/10/07 13:08:27;;;;;;;11.40;4.13;;;;;;;;;;5177569;27;20018;-71
2023/10/07 13:11:13;;;;;;;8.75;4.10;;;;;;;;;;5163691;27;20019;-72
2023/10/07 13:14:00;;;;;;;9.48;4.05;;;;;;;;;;5179252;27;20065;-72
2023/10/07 13:16:48;;;;;;;11.77;4.30;;;;;;;;;;5178797;27;20018;-71
2023/10/07 13:19:36;;;;;;;6.93;4.00;;;;;;;;;;5179689;27;20041;-72
2023/10/07 13:22:23;;;;;;;11.02;4.43;;;;;;;;;;5177611;27;20058;-71
2023/10/07 13:25:11;;;;;;;6.70;4.07;;;;;;;;;;5179901;27;20050;-72
2023/10/07 13:27:59;;;;;;;12.73;4.30;;;;;;;;;;5180093;27;20026;-72
2023/10/07 13:30:46;;;;;;;10.70;4.32;;;;;;;;;;5178756;27;20071;-72
2023/10/07 13:33:31;;;;;;;7.78;4.18;;;;;;;;;;5179130;27;20104;-71
2023/10/07 13:36:17;;;;;;;16.88;4.43;;;;;;;;;;5181907;27;20356;-72
2023/10/07 13:39:03;;;;;;;9.80;4.72;;;;;;;;;;5167781;27;20010;-71
2023/10/07 13:41:51;;;;;;;9.55;4.43;;;;;;;;;;5181038;27;20023;-72
2023/10/07 13:44:37;;;;;;;12.50;4.40;;;;;;;;;;5182149;27;20022;-72
2023/10/07 13:47:23;;;;;;;8.80;4.07;;;;;;;;;;5184128;27;20439;-74
2023/10/07 13:50:15;;;;;;;8.70;4.40;;;;;;;;;;5161124;27;20042;-72
2023/10/07 13:55:55;;;;;;;9.88;4.75;;;;;;;;;;5180490;27;20071;-72
2023/10/07 13:58:42;;;;;;;7.88;4.95;;;;;;;;;;5165313;27;20410;-73
2023/10/07 14:01:29;;;;;;;17.90;5.50;;;;;;;;;;5164788;27;20075;-73
2023/10/07 14:04:15;;;;;;;10.20;4.65;;;;;;;;;;5164452;27;20022;-73
2023/10/07 14:07:05;;;;;;;10.80;4.82;;;;;;;;;;5179433;27;20078;-71
2023/10/07 14:09:50;;;;;;;12.30;4.50;;;;;;;;;;5178555;27;20014;-73
2023/10/07 14:12:36;;;;;;;10.85;5.28;;;;;;;;;;5179064;27;20026;-72
2023/10/07 14:15:22;;;;;;;12.68;5.13;;;;;;;;;;5178942;27;20516;-73
2023/10/07 14:18:07;;;;;;;10.20;5.30;;;;;;;;;;5184032;27;20022;-72
2023/10/07 14:20:57;;;;;;;11.48;5.65;;;;;;;;;;5182743;27;20018;-72
2023/10/07 14:23:42;;;;;;;10.73;6.22;;;;;;;;;;5185345;27;20018;-71
2023/10/07 14:26:32;;;;;;;13.27;5.88;;;;;;;;;;5183528;27;20022;-72
2023/10/07 14:29:18;;;;;;;9.18;4.70;;;;;;;;;;5181762;27;20018;-71
2023/10/07 14:32:06;;;;;;;9.70;4.88;;;;;;;;;;5186574;27;20022;-72
2023/10/07 14:34:53;;;;;;;13.60;4.82;;;;;;;;;;5185321;27;20094;-72
2023/10/07 14:37:39;;;;;;;11.75;5.00;;;;;;;;;;5185774;27;20030;-73
2023/10/07 14:40:25;;;;;;;9.40;4.57;;;;;;;;;;5172668;27;20032;-72
2023/10/07 14:43:13;;;;;;;8.15;4.80;;;;;;;;;;5190929;27;20493;-74
2023/10/07 14:45:59;;;;;;;13.13;5.28;;;;;;;;;;5185234;27;20045;-71
2023/10/07 14:48:49;;;;;;;12.98;5.38;;;;;;;;;;5183160;27;20452;-71
2023/10/07 14:51:34;;;;;;;15.57;5.13;;;;;;;;;;5184291;27;20018;-72
2023/10/07 14:54:21;;;;;;;13.27;4.80;;;;;;;;;;5170155;27;20034;-70
2023/10/07 14:57:06;;;;;;;8.48;4.38;;;;;;;;;;5187151;27;20098;-72
2023/10/07 14:59:53;;;;;;;17.92;4.72;;;;;;;;;;5181608;27;20050;-72
2023/10/07 15:02:38;;;;;;;9.93;4.60;;;;;;;;;;5163302;27;20050;-73
2023/10/07 15:05:27;;;;;;;8.88;4.40;;;;;;;;;;5178646;27;20018;-72
2023/10/07 15:08:16;;;;;;;9.13;4.82;;;;;;;;;;5179140;27;20018;-74
2023/10/07 15:11:04;;;;;;;8.43;4.70;;;;;;;;;;5176614;27;20072;-72
2023/10/07 15:13:50;;;;;;;9.70;5.30;;;;;;;;;;5181439;27;20412;-72
2023/10/07 15:16:36;;;;;;;8.65;4.93;;;;;;;;;;5177061;27;20378;-72
2023/10/07 15:19:21;;;;;;;13.02;5.25;;;;;;;;;;5178205;27;20019;-72
2023/10/07 15:22:07;;;;;;;11.70;4.88;;;;;;;;;;5176847;27;20482;-72
2023/10/07 15:24:53;;;;;;;11.45;5.07;;;;;;;;;;5176758;27;20050;-71
2023/10/07 15:27:38;;;;;;;9.98;4.85;;;;;;;;;;5177894;27;20032;-72
2023/10/07 15:30:24;;;;;;;9.20;5.70;;;;;;;;;;5177060;27;20022;-73
2023/10/07 15:33:10;;;;;;;12.52;5.40;;;;;;;;;;5176609;27;20129;-72
2023/10/07 15:35:56;;;;;;;13.00;6.43;;;;;;;;;;5177231;27;20059;-72
2023/10/07 15:38:44;;;;;;;9.00;5.20;;;;;;;;;;5177661;27;20033;-72
2023/10/07 15:41:30;;;;;;;10.35;5.20;;;;;;;;;;5176220;27;20018;-74
2023/10/07 15:44:16;;;;;;;10.15;5.00;;;;;;;;;;5175941;27;20060;-72
2023/10/07 15:47:02;;;;;;;10.98;5.68;;;;;;;;;;5176380;27;20026;-71
2023/10/07 15:49:50;;;;;;;13.40;6.75;;;;;;;;;;5176641;27;20054;-72
2023/10/07 15:52:36;;;;;;;16.52;7.50;;;;;;;;;;5177685;27;20032;-73
2023/10/07 15:55:21;;;;;;;14.40;8.10;;;;;;;;;;5177080;27;20101;-72
2023/10/07 15:58:07;;;;;;;15.52;7.28;;;;;;;;;;5176684;27;20037;-72
2023/10/07 16:00:53;;;;;;;15.70;6.43;;;;;;;;;;5176540;27;20321;-73
2023/10/07 16:03:39;;;;;;;15.45;6.35;;;;;;;;;;5176210;27;20014;-72
2023/10/07 16:06:25;;;;;;;14.45;6.13;;;;;;;;;;5161912;27;20093;-72
2023/10/07 16:09:13;;;;;;;14.60;6.03;;;;;;;;;;5177461;27;20432;-73
2023/10/07 16:12:00;;;;;;;15.85;6.20;;;;;;;;;;5161251;27;20026;-73
2023/10/07 16:14:47;;;;;;;22.80;6.35;;;;;;;;;;5175318;27;20040;-72
2023/10/07 16:17:34;;;;;;;16.52;6.85;;;;;;;;;;5176609;27;20018;-73
2023/10/07 16:20:20;;;;;;;16.08;6.68;;;;;;;;;;5176696;27;20018;-74
2023/10/07 16:23:08;;;;;;;19.00;6.90;;;;;;;;;;5175248;27;20029;-72
2023/10/07 16:25:54;;;;;;;22.23;7.82;;;;;;;;;;5176524;27;20025;-71
2023/10/07 16:28:40;;;;;;;21.02;8.63;;;;;;;;;;5175255;27;20150;-73
2023/10/07 16:31:26;;;;;;;17.13;9.10;;;;;;;;;;5175888;27;20311;-71
2023/10/07 16:34:12;;;;;;;16.17;8.27;;;;;;;;;;5176327;27;20022;-72
2023/10/07 16:36:57;;;;;;;17.58;7.53;;;;;;;;;;5175966;27;20109;-72
2023/10/07 16:39:44;;;;;;;16.83;8.38;;;;;;;;;;5176049;27;20018;-71
2023/10/07 16:42:30;;;;;;;18.17;8.82;;;;;;;;;;5176165;27;20044;-73
2023/10/07 16:45:16;;;;;;;20.08;8.95;;;;;;;;;;5175656;27;20426;-72
2023/10/07 16:48:02;;;;;;;17.38;8.32;;;;;;;;;;5176346;27;20054;-71
2023/10/07 16:50:54;;;;;;;17.27;8.27;;;;;;;;;;5175355;27;20069;-73
2023/10/07 16:53:40;;;;;;;19.02;9.60;;;;;;;;;;5175636;27;20026;-72
2023/10/07 16:56:26;;;;;;;17.38;9.85;;;;;;;;;;5175958;27;20015;-73
2023/10/07 16:59:12;;;;;;;24.23;10.20;;;;;;;;;;5175163;27;20015;-72
2023/10/07 17:02:00;;;;;;;21.73;9.95;;;;;;;;;;5160267;27;20162;-73
2023/10/07 17:04:46;;;;;;;15.40;9.70;;;;;;;;;;5175987;27;20018;-72
2023/10/07 17:07:31;;;;;;;18.35;9.80;;;;;;;;;;5177636;27;20026;-73